sensor_id;sensor_type;location;lat;lon;timestamp;temperature;humidity
43665;DHT22;29263;48.172;11.484;2022-10-16T10:17:29;20.70;99.90
43665;DHT22;29263;48.172;11.484;2022-10-16T10:36:50;21.20;99.90
43665;DHT22;29263;48.172;11.484;2022-10-16T10:39:35;21.30;99.90
43665;DHT22;29263;48.172;11.484;2022-10-16T10:42:13;21.40;99.90
43665;DHT22;29263;48.172;11.484;2022-10-16T10:55:29;21.60;99.90
43665;DHT22;29263;48.172;11.484;2022-10-16T10:58:20;21.60;99.90
43665;DHT22;29263;48.172;11.484;2022-10-16T11:06:26;21.70;95.00
43665;DHT22;29263;48.172;11.484;2022-10-16T11:11:49;22.00;90.90
43665;DHT22;29263;48.172;11.484;2022-10-16T11:14:30;22.00;86.70
43665;DHT22;29263;48.172;11.484;2022-10-16T11:22:22;22.00;91.30
43665;DHT22;29263;48.172;11.484;2022-10-16T11:25:04;21.90;95.10
43665;DHT22;29263;48.172;11.484;2022-10-16T11:27:47;21.90;90.90
43665;DHT22;29263;48.172;11.484;2022-10-16T11:30:26;22.00;93.10
43665;DHT22;29263;48.172;11.484;2022-10-16T11:32:54;22.00;91.40
43665;DHT22;29263;48.172;11.484;2022-10-16T11:38:03;22.00;93.60
43665;DHT22;29263;48.172;11.484;2022-10-16T11:40:35;22.00;89.40
43665;DHT22;29263;48.172;11.484;2022-10-16T11:43:21;22.00;86.30
43665;DHT22;29263;48.172;11.484;2022-10-16T11:45:56;22.10;85.50
43665;DHT22;29263;48.172;11.484;2022-10-16T11:48:32;22.20;85.50
43665;DHT22;29263;48.172;11.484;2022-10-16T11:56:18;22.50;83.60
43665;DHT22;29263;48.172;11.484;2022-10-16T11:59:05;22.50;76.60
43665;DHT22;29263;48.172;11.484;2022-10-16T12:01:42;22.50;76.40
43665;DHT22;29263;48.172;11.484;2022-10-16T12:04:20;22.40;77.60
43665;DHT22;29263;48.172;11.484;2022-10-16T12:07:09;22.30;80.60
43665;DHT22;29263;48.172;11.484;2022-10-16T12:09:39;22.30;83.20
43665;DHT22;29263;48.172;11.484;2022-10-16T12:12:22;22.20;83.00
43665;DHT22;29263;48.172;11.484;2022-10-16T12:14:59;22.40;86.00
43665;DHT22;29263;48.172;11.484;2022-10-16T12:17:34;22.50;91.00
43665;DHT22;29263;48.172;11.484;2022-10-16T12:22:53;22.60;81.30
43665;DHT22;29263;48.172;11.484;2022-10-16T12:28:06;22.70;83.20
43665;DHT22;29263;48.172;11.484;2022-10-16T12:30:35;22.70;68.30
43665;DHT22;29263;48.172;11.484;2022-10-16T12:33:04;22.80;67.60
43665;DHT22;29263;48.172;11.484;2022-10-16T12:35:33;22.80;73.50
43665;DHT22;29263;48.172;11.484;2022-10-16T12:40:57;22.80;68.40
43665;DHT22;29263;48.172;11.484;2022-10-16T12:43:24;22.70;67.30
43665;DHT22;29263;48.172;11.484;2022-10-16T12:46:24;22.70;69.00
43665;DHT22;29263;48.172;11.484;2022-10-16T12:48:48;22.60;70.70
43665;DHT22;29263;48.172;11.484;2022-10-16T12:59:59;22.90;67.60
43665;DHT22;29263;48.172;11.484;2022-10-16T13:03:20;23.00;70.40
43665;DHT22;29263;48.172;11.484;2022-10-16T13:29:54;23.20;68.00
43665;DHT22;29263;48.172;11.484;2022-10-16T13:32:26;23.30;67.50
43665;DHT22;29263;48.172;11.484;2022-10-16T13:34:52;23.30;67.80
43665;DHT22;29263;48.172;11.484;2022-10-16T13:37:22;23.30;68.40
43665;DHT22;29263;48.172;11.484;2022-10-16T13:39:48;23.40;68.20
43665;DHT22;29263;48.172;11.484;2022-10-16T13:42:28;23.40;66.20
43665;DHT22;29263;48.172;11.484;2022-10-16T13:44:55;23.60;66.80
43665;DHT22;29263;48.172;11.484;2022-10-16T13:47:23;23.80;65.10
43665;DHT22;29263;48.172;11.484;2022-10-16T13:50:14;24.10;66.80
43665;DHT22;29263;48.172;11.484;2022-10-16T13:52:40;24.00;63.00
43665;DHT22;29263;48.172;11.484;2022-10-16T13:55:14;24.20;65.50
43665;DHT22;29263;48.172;11.484;2022-10-16T13:57:41;24.30;62.10
43665;DHT22;29263;48.172;11.484;2022-10-16T14:00:27;24.70;63.10
43665;DHT22;29263;48.172;11.484;2022-10-16T14:03:13;25.20;63.30
43665;DHT22;29263;48.172;11.484;2022-10-16T14:05:51;26.40;60.60
43665;DHT22;29263;48.172;11.484;2022-10-16T14:08:17;26.00;63.30
43665;DHT22;29263;48.172;11.484;2022-10-16T14:10:48;25.40;65.20
43665;DHT22;29263;48.172;11.484;2022-10-16T14:13:18;25.10;64.30
43665;DHT22;29263;48.172;11.484;2022-10-16T14:15:48;25.00;65.90
43665;DHT22;29263;48.172;11.484;2022-10-16T14:18:21;24.90;65.70
43665;DHT22;29263;48.172;11.484;2022-10-16T14:20:49;24.60;63.40
43665;DHT22;29263;48.172;11.484;2022-10-16T14:23:29;24.40;62.20
43665;DHT22;29263;48.172;11.484;2022-10-16T14:26:16;24.20;64.40
43665;DHT22;29263;48.172;11.484;2022-10-16T14:28:43;24.00;66.40
43665;DHT22;29263;48.172;11.484;2022-10-16T14:31:32;23.80;66.80
43665;DHT22;29263;48.172;11.484;2022-10-16T14:33:58;23.70;67.60
43665;DHT22;29263;48.172;11.484;2022-10-16T14:36:26;23.60;68.90
43665;DHT22;29263;48.172;11.484;2022-10-16T14:39:04;23.60;67.80
43665;DHT22;29263;48.172;11.484;2022-10-16T14:41:32;23.50;69.20
43665;DHT22;29263;48.172;11.484;2022-10-16T14:44:02;23.30;71.30
43665;DHT22;29263;48.172;11.484;2022-10-16T14:46:35;23.10;75.80
43665;DHT22;29263;48.172;11.484;2022-10-16T14:49:19;22.90;78.80
43665;DHT22;29263;48.172;11.484;2022-10-16T14:51:46;22.70;76.50
43665;DHT22;29263;48.172;11.484;2022-10-16T14:54:13;22.50;75.30
43665;DHT22;29263;48.172;11.484;2022-10-16T14:56:56;22.30;79.60
43665;DHT22;29263;48.172;11.484;2022-10-16T14:59:38;22.10;83.10
43665;DHT22;29263;48.172;11.484;2022-10-16T15:02:31;22.00;90.50
43665;DHT22;29263;48.172;11.484;2022-10-16T15:04:58;21.80;87.60
43665;DHT22;29263;48.172;11.484;2022-10-16T15:07:24;21.70;88.60
43665;DHT22;29263;48.172;11.484;2022-10-16T15:09:50;21.50;92.30
43665;DHT22;29263;48.172;11.484;2022-10-16T15:12:17;21.40;94.40
43665;DHT22;29263;48.172;11.484;2022-10-16T15:14:42;21.20;95.90
43665;DHT22;29263;48.172;11.484;2022-10-16T15:17:11;21.10;99.90
43665;DHT22;29263;48.172;11.484;2022-10-16T15:19:37;21.00;99.90
43665;DHT22;29263;48.172;11.484;2022-10-16T15:22:02;20.90;99.90
43665;DHT22;29263;48.172;11.484;2022-10-16T15:24:28;20.80;99.90
43665;DHT22;29263;48.172;11.484;2022-10-16T15:26:53;20.70;99.90
43665;DHT22;29263;48.172;11.484;2022-10-16T15:29:19;20.60;99.90
43665;DHT22;29263;48.172;11.484;2022-10-16T15:31:45;20.50;99.90
43665;DHT22;29263;48.172;11.484;2022-10-16T15:34:12;20.40;99.90
43665;DHT22;29263;48.172;11.484;2022-10-16T15:36:39;20.30;99.90
